Time;durP1;ratioP1;P1;durP2;ratioP2;P2;SDS_P1;SDS_P2;PMS_P1;PMS_P2;Temp;Humidity;BMP_temperature;BMP_pressure;BME280_temperature;BME280_humidity;BME280_pressure;Samples;Min_cycle;Max_cycle;Signal;HPM_P1;HPM_P2
2021/03/27 00:00:32;;;;;;;30.32;20.92;;;;;;;6.22;60.81;99895.09;347843;115;1962005;-72
2021/03/27 00:01:53;;;;;;;32.03;22.41;;;;;;;6.21;60.79;99885.38;347158;117;1961959;-72
2021/03/27 00:03:06;;;;;;;32.60;20.71;;;;;;;6.22;60.72;99887.05;328553;116;2311992;-73
2021/03/27 00:04:19;;;;;;;32.57;21.11;;;;;;;6.22;60.82;99887.05;346216;115;1961957;-73
2021/03/27 00:05:33;;;;;;;32.07;20.82;;;;;;;6.21;60.76;99880.85;303343;117;2105482;-73
2021/03/27 00:06:57;;;;;;;31.76;20.81;;;;;;;6.23;60.62;99886.89;313112;116;1990515;-73
2021/03/27 00:08:31;;;;;;;31.88;20.42;;;;;;;6.24;60.51;99880.50;334850;116;2221921;-72
2021/03/27 00:09:43;;;;;;;31.33;19.98;;;;;;;6.25;60.63;99881.36;344459;116;1961974;-73
2021/03/27 00:10:58;;;;;;;32.82;20.89;;;;;;;6.25;60.55;99887.56;347398;114;1962015;-72
2021/03/27 00:12:13;;;;;;;35.08;21.10;;;;;;;6.23;60.64;99876.16;343601;116;1961957;-73
2021/03/27 00:13:31;;;;;;;31.47;20.09;;;;;;;6.24;60.72;99880.50;348234;116;1962937;-72
2021/03/27 00:14:43;;;;;;;30.81;19.84;;;;;;;6.24;60.69;99877.81;305642;114;2094724;-72
2021/03/27 00:16:01;;;;;;;32.36;19.09;;;;;;;6.23;60.66;99876.16;299612;116;2794063;-72
2021/03/27 00:17:15;;;;;;;35.89;19.66;;;;;;;6.22;60.70;99871.81;341733;115;1961936;-72
2021/03/27 00:18:27;;;;;;;33.03;21.11;;;;;;;6.22;60.62;99876.31;345995;117;1961915;-72
2021/03/27 00:19:42;;;;;;;33.27;20.04;;;;;;;6.21;60.75;99883.53;345387;117;1961942;-73
2021/03/27 00:20:52;;;;;;;32.82;19.38;;;;;;;6.21;60.58;99875.48;344794;116;1961843;-72
2021/03/27 00:22:02;;;;;;;34.27;20.66;;;;;;;6.22;60.71;99879.00;342653;115;1962000;-71
2021/03/27 00:23:20;;;;;;;33.30;21.21;;;;;;;6.22;60.59;99876.31;345516;117;1961959;-71
2021/03/27 00:24:57;;;;;;;33.59;20.26;;;;;;;6.22;60.79;99881.68;345215;117;1962979;-73
2021/03/27 00:26:23;;;;;;;32.84;19.90;;;;;;;6.24;60.56;99883.18;345052;117;1961895;-72
2021/03/27 00:27:32;;;;;;;36.09;19.17;;;;;;;6.25;60.54;99887.56;344643;117;1962991;-71
2021/03/27 00:28:41;;;;;;;30.27;19.51;;;;;;;6.25;60.64;99884.05;334653;111;1960795;-72
2021/03/27 00:29:50;;;;;;;31.96;21.01;;;;;;;6.25;60.68;99886.73;325747;114;2237000;-72
2021/03/27 00:31:06;;;;;;;30.76;18.92;;;;;;;6.24;60.77;99871.63;320781;114;2567984;-73
2021/03/27 00:32:16;;;;;;;32.66;20.56;;;;;;;6.28;60.57;99887.20;344773;112;1961947;-72
2021/03/27 00:33:28;;;;;;;27.69;19.11;;;;;;;6.27;60.55;99882.86;316290;112;2062610;-72
2021/03/27 00:34:41;;;;;;;32.57;19.76;;;;;;;6.30;60.43;99876.31;357776;110;1961976;-72
2021/03/27 00:35:56;;;;;;;31.82;20.43;;;;;;;6.30;60.34;99882.52;362800;110;1961993;-72
2021/03/27 00:37:05;;;;;;;33.92;20.98;;;;;;;6.31;60.45;99884.17;359291;112;1961925;-72
2021/03/27 00:38:14;;;;;;;32.52;19.69;;;;;;;6.30;60.56;99884.37;331386;112;1964984;-72
2021/03/27 00:39:23;;;;;;;33.79;20.44;;;;;;;6.30;60.53;99877.14;320278;112;1997261;-72
2021/03/27 00:40:33;;;;;;;32.01;20.00;;;;;;;6.28;60.56;99879.16;307790;112;2221950;-72
2021/03/27 00:41:42;;;;;;;32.94;19.77;;;;;;;6.28;60.48;99875.64;312103;112;2790913;-72
2021/03/27 00:42:52;;;;;;;31.52;20.27;;;;;;;6.28;60.49;99875.64;314839;112;2755966;-73
2021/03/27 00:44:01;;;;;;;35.53;20.38;;;;;;;6.26;60.49;99878.48;308049;110;2867899;-73
2021/03/27 00:45:11;;;;;;;30.93;19.38;;;;;;;6.29;60.48;99871.94;355427;110;1961002;-72
2021/03/27 00:46:21;;;;;;;30.81;21.18;;;;;;;6.29;60.53;99877.31;337196;117;1961911;-73
2021/03/27 00:47:30;;;;;;;29.63;20.06;;;;;;;6.29;60.43;99880.81;304986;120;2554004;-73
2021/03/27 00:48:40;;;;;;;31.84;19.91;;;;;;;6.28;60.37;99881.84;305745;121;2483955;-72
2021/03/27 00:49:53;;;;;;;34.36;20.29;;;;;;;6.28;60.41;99879.16;298140;121;2629084;-72
2021/03/27 00:51:02;;;;;;;31.62;21.58;;;;;;;6.28;60.60;99881.84;328021;123;1963714;-72
2021/03/27 00:52:11;;;;;;;30.21;19.73;;;;;;;6.28;60.46;99884.52;328766;121;1963030;-72
2021/03/27 00:53:38;;;;;;;33.23;20.34;;;;;;;6.28;60.54;99886.37;324315;123;1961974;-72
2021/03/27 00:55:01;;;;;;;30.63;19.99;;;;;;;6.28;60.58;99884.52;322088;121;2885995;-72
2021/03/27 00:56:20;;;;;;;30.67;19.36;;;;;;;6.27;60.54;99882.86;326247;121;1960996;-72
2021/03/27 00:57:32;;;;;;;31.67;20.28;;;;;;;6.26;60.49;99875.80;322444;123;1965796;-72
2021/03/27 00:58:44;;;;;;;32.66;20.43;;;;;;;6.27;60.43;99879.32;330439;123;1964044;-73
2021/03/27 01:00:11;;;;;;;31.41;20.63;;;;;;;6.28;60.48;99886.37;327183;122;1962018;-72
2021/03/27 01:01:23;;;;;;;32.56;20.87;;;;;;;6.28;60.42;99889.06;310535;128;1961993;-72
2021/03/27 01:02:40;;;;;;;35.91;22.05;;;;;;;6.26;60.37;99881.17;321257;125;1962079;-72
2021/03/27 01:03:55;;;;;;;31.19;21.38;;;;;;;6.28;60.59;99884.52;322435;125;1961054;-72
2021/03/27 01:05:17;;;;;;;34.04;20.37;;;;;;;6.27;60.46;99888.23;316448;126;1963939;-72
2021/03/27 01:06:53;;;;;;;33.82;21.44;;;;;;;6.26;60.52;99875.80;321499;124;1961993;-72
2021/03/27 01:08:14;;;;;;;33.27;20.63;;;;;;;6.24;60.64;99880.50;314087;127;1961993;-72
2021/03/27 01:09:50;;;;;;;35.89;21.52;;;;;;;6.25;60.45;99879.51;280835;123;2834993;-72
2021/03/27 01:11:36;;;;;;;36.56;21.94;;;;;;;6.24;60.40;99885.87;291568;123;2768912;-72
2021/03/27 01:12:44;;;;;;;34.38;21.13;;;;;;;6.22;60.47;99874.50;330535;123;1963911;-72
2021/03/27 01:13:53;;;;;;;35.44;22.43;;;;;;;6.22;60.74;99882.55;306149;123;2453926;-72
2021/03/27 01:15:03;;;;;;;33.66;20.38;;;;;;;6.21;60.58;99883.53;329949;121;1961957;-72
2021/03/27 01:16:14;;;;;;;33.47;20.11;;;;;;;6.22;60.64;99882.55;325543;122;1962043;-72
2021/03/27 01:17:23;;;;;;;34.58;22.36;;;;;;;6.21;60.90;99886.21;314434;123;1962032;-73
2021/03/27 01:18:35;;;;;;;34.47;21.24;;;;;;;6.19;60.76;99887.39;284968;121;2177260;-72
2021/03/27 01:20:03;;;;;;;32.84;21.18;;;;;;;6.20;60.65;99886.41;330518;123;1963020;-73
2021/03/27 01:21:15;;;;;;;33.79;20.68;;;;;;;6.20;60.69;99884.55;303562;121;1962025;-73
2021/03/27 01:22:24;;;;;;;32.16;21.09;;;;;;;6.20;60.75;99887.23;330480;123;1961961;-72
2021/03/27 01:23:29;;;;;;;30.23;21.39;;;;;;;6.19;60.72;99884.71;330868;123;1962069;-72
2021/03/27 01:24:35;;;;;;;33.15;22.81;;;;;;;6.18;60.80;99883.05;330249;123;1963041;-72
2021/03/27 01:25:41;;;;;;;34.85;21.64;;;;;;;6.18;60.80;99880.37;281980;123;2837936;-72
2021/03/27 01:26:50;;;;;;;31.45;21.56;;;;;;;6.16;60.82;99881.36;325289;125;1960988;-72
2021/03/27 01:28:05;;;;;;;34.71;21.36;;;;;;;6.19;60.75;99882.86;307169;125;2301106;-72
2021/03/27 01:29:14;;;;;;;33.03;22.01;;;;;;;6.18;60.75;99883.88;294846;123;2023752;-72
2021/03/27 01:30:26;;;;;;;35.36;22.93;;;;;;;6.19;60.78;99882.03;285449;123;2170255;-72
2021/03/27 01:31:44;;;;;;;35.66;22.03;;;;;;;6.19;60.78;99884.71;329735;121;1964071;-71
2021/03/27 01:32:57;;;;;;;31.69;20.68;;;;;;;6.20;60.70;99884.55;319946;123;1962042;-72
2021/03/27 01:34:31;;;;;;;32.39;20.04;;;;;;;6.19;60.89;99884.71;328276;121;1961947;-73
2021/03/27 01:35:40;;;;;;;36.20;20.88;;;;;;;6.18;60.78;99883.05;329187;121;1962021;-73
2021/03/27 01:36:52;;;;;;;37.27;22.74;;;;;;;6.18;60.80;99885.73;331792;121;1961942;-72
2021/03/27 01:38:01;;;;;;;35.08;22.41;;;;;;;6.17;60.76;99882.22;298503;123;2918017;-72
2021/03/27 01:39:11;;;;;;;33.52;22.44;;;;;;;6.20;60.73;99892.59;289913;123;2894007;-72
2021/03/27 01:40:37;;;;;;;32.12;21.28;;;;;;;6.18;60.74;99881.20;333765;121;1961987;-73
2021/03/27 01:42:07;;;;;;;30.93;20.17;;;;;;;6.16;60.83;99888.58;323102;123;1961965;-72
2021/03/27 01:43:28;;;;;;;33.52;21.36;;;;;;;6.14;60.96;99886.08;310757;127;1962967;-72
2021/03/27 01:44:40;;;;;;;30.96;20.68;;;;;;;6.11;61.00;99882.89;329106;121;1962015;-71
2021/03/27 01:46:09;;;;;;;33.38;21.08;;;;;;;6.10;60.95;99883.91;291511;120;2132442;-72
2021/03/27 01:47:37;;;;;;;43.24;22.91;;;;;;;6.10;60.99;99879.37;293850;122;2058861;-72
2021/03/27 01:49:03;;;;;;;36.48;21.48;;;;;;;6.12;61.07;99887.27;331064;123;1961893;-72
2021/03/27 01:50:16;;;;;;;33.20;20.54;;;;;;;6.09;60.93;99874.20;299968;121;2940935;-72
2021/03/27 01:51:34;;;;;;;30.75;20.06;;;;;;;6.09;60.98;99875.03;330092;120;1961931;-73
2021/03/27 01:52:43;;;;;;;37.45;22.34;;;;;;;6.08;60.95;99877.88;328945;120;1961993;-72
2021/03/27 01:53:59;;;;;;;35.56;21.10;;;;;;;6.08;61.20;99883.23;295667;122;2027002;-72
2021/03/27 01:55:24;;;;;;;36.64;22.52;;;;;;;6.08;61.11;99883.23;327157;122;1961007;-72
2021/03/27 01:56:45;;;;;;;35.27;21.69;;;;;;;6.06;61.12;99878.06;330858;120;1962006;-72
2021/03/27 01:58:10;;;;;;;35.11;22.19;;;;;;;6.06;61.16;99882.56;332027;122;1961904;-72
2021/03/27 01:59:28;;;;;;;32.22;20.57;;;;;;;6.05;61.29;99886.27;329458;121;1961951;-72
2021/03/27 02:00:37;;;;;;;33.07;20.47;;;;;;;6.02;61.20;99881.25;330941;123;1961997;-72
2021/03/27 02:01:58;;;;;;;31.74;21.66;;;;;;;6.02;61.11;99884.77;329683;121;1962085;-72
2021/03/27 02:03:14;;;;;;;35.69;21.58;;;;;;;6.02;61.30;99879.39;325511;125;1961908;-72
2021/03/27 02:04:23;;;;;;;36.99;22.30;;;;;;;6.03;61.19;99882.91;326125;121;1962264;-72
2021/03/27 02:05:36;;;;;;;32.71;21.11;;;;;;;6.03;61.11;99875.70;329937;121;1962002;-72
2021/03/27 02:06:51;;;;;;;32.81;21.30;;;;;;;6.03;61.21;99881.05;328571;121;1961991;-72
2021/03/27 02:08:17;;;;;;;32.62;21.97;;;;;;;6.03;61.23;99881.05;328346;121;1962046;-72
2021/03/27 02:09:32;;;;;;;36.53;20.36;;;;;;;6.04;61.19;99879.23;328572;120;1963969;-72
2021/03/27 02:10:45;;;;;;;37.29;21.73;;;;;;;6.05;61.14;99880.90;286865;121;2856964;-72
2021/03/27 02:11:54;;;;;;;40.17;21.80;;;;;;;6.06;61.28;99885.24;323847;123;1961921;-70
2021/03/27 02:13:06;;;;;;;33.53;21.97;;;;;;;6.04;61.13;99885.44;329876;121;1961984;-72
2021/03/27 02:14:22;;;;;;;36.64;21.87;;;;;;;6.06;61.15;99886.11;290397;121;2780946;-72
2021/03/27 02:15:52;;;;;;;33.01;21.37;;;;;;;6.07;61.09;99884.25;306565;121;1961939;-72
2021/03/27 02:17:13;;;;;;;37.00;21.39;;;;;;;6.07;61.12;99894.98;325570;121;1962917;-72
2021/03/27 02:18:22;;;;;;;33.87;21.47;;;;;;;6.07;61.19;99886.94;329528;121;1960808;-72
2021/03/27 02:19:49;;;;;;;33.82;20.69;;;;;;;6.07;61.11;99890.45;329527;119;1960738;-72
2021/03/27 02:21:11;;;;;;;38.43;21.13;;;;;;;6.07;61.11;99893.13;292239;121;2906817;-72
2021/03/27 02:22:22;;;;;;;33.14;20.19;;;;;;;6.09;61.09;99895.66;313108;121;1960699;-73
2021/03/27 02:23:32;;;;;;;;;;;;;;;6.10;61.11;99894.63;332481;121;1960006;-72
2021/03/27 02:25:00;;;;;;;35.89;20.92;;;;;;;6.11;61.12;99897.16;330883;119;1960888;-72
2021/03/27 02:26:18;;;;;;;32.98;21.84;;;;;;;6.13;61.00;99895.12;324171;122;1960966;-72
2021/03/27 02:27:44;;;;;;;33.76;21.66;;;;;;;6.16;60.92;99896.63;283043;125;2632906;-72
2021/03/27 02:29:06;;;;;;;30.16;20.19;;;;;;;6.19;60.82;99895.44;329374;121;1961974;-72
2021/03/27 02:30:25;;;;;;;31.94;20.83;;;;;;;6.21;60.74;99891.58;329539;121;1962008;-72
2021/03/27 02:31:42;;;;;;;33.37;20.09;;;;;;;6.23;60.70;99899.47;329454;123;1964931;-72
2021/03/27 02:33:01;;;;;;;31.43;20.62;;;;;;;6.23;60.65;99892.25;309506;123;1961991;-72
2021/03/27 02:34:25;;;;;;;33.88;21.18;;;;;;;6.23;60.57;99894.94;293620;121;2697997;-72
2021/03/27 02:35:49;;;;;;;34.18;22.81;;;;;;;6.22;60.59;99897.77;329663;121;1962017;-72
2021/03/27 02:37:15;;;;;;;33.62;21.18;;;;;;;6.22;60.63;99887.05;329418;123;1962154;-72
2021/03/27 02:38:33;;;;;;;33.61;22.01;;;;;;;6.20;60.59;99891.77;315559;121;2245982;-72
2021/03/27 02:39:52;;;;;;;32.51;21.55;;;;;;;6.19;60.73;99896.27;328325;121;1961978;-73
2021/03/27 02:41:34;;;;;;;33.16;21.93;;;;;;;6.17;60.69;99892.95;330012;121;1962084;-72
2021/03/27 02:42:59;;;;;;;36.30;21.82;;;;;;;6.12;60.91;99893.45;301880;121;1962449;-73
2021/03/27 02:44:08;;;;;;;34.67;21.87;;;;;;;6.10;60.89;99895.47;278334;123;2242812;-72
2021/03/27 02:45:17;;;;;;;32.71;20.32;;;;;;;6.06;60.97;99893.29;300812;123;2569042;-72
2021/03/27 02:46:33;;;;;;;36.38;22.43;;;;;;;6.03;61.13;99890.95;300813;121;2544969;-72
2021/03/27 02:48:05;;;;;;;35.03;21.90;;;;;;;6.03;61.29;99891.78;326531;122;1961982;-73
2021/03/27 02:49:17;;;;;;;34.55;20.81;;;;;;;6.02;61.12;99887.44;328120;122;1964010;-72
2021/03/27 02:50:33;;;;;;;34.54;22.34;;;;;;;6.02;61.19;99889.30;327144;122;1961925;-72
2021/03/27 02:51:49;;;;;;;36.07;23.12;;;;;;;6.01;61.04;99892.99;327721;122;1961860;-73
2021/03/27 02:53:06;;;;;;;37.45;22.28;;;;;;;5.98;61.14;99894.17;327684;122;1963962;-71
2021/03/27 02:54:30;;;;;;;36.92;22.90;;;;;;;5.99;61.15;99884.28;298560;122;1961923;-72
2021/03/27 02:56:02;;;;;;;34.51;21.40;;;;;;;5.98;61.31;99888.81;294443;122;2658004;-72
2021/03/27 02:57:15;;;;;;;38.02;23.50;;;;;;;5.96;61.48;99888.14;326680;122;1961975;-72
2021/03/27 02:58:30;;;;;;;32.86;21.16;;;;;;;5.94;61.49;99890.97;284656;122;2221982;-72
2021/03/27 02:59:58;;;;;;;38.68;22.56;;;;;;;5.92;61.45;99894.80;294000;122;1987091;-71
2021/03/27 03:01:30;;;;;;;35.94;22.31;;;;;;;5.91;61.77;99885.92;309914;122;2317964;-73
2021/03/27 03:02:45;;;;;;;37.13;23.30;;;;;;;5.90;61.54;99894.98;328117;122;1962030;-72
2021/03/27 03:04:12;;;;;;;36.07;22.77;;;;;;;5.89;61.60;99895.97;325966;122;1962045;-72
2021/03/27 03:05:41;;;;;;;37.68;23.14;;;;;;;5.88;61.63;99894.31;285632;122;2850879;-72
2021/03/27 03:06:57;;;;;;;37.73;22.01;;;;;;;5.88;61.72;99902.36;283920;122;2171314;-72
2021/03/27 03:08:17;;;;;;;37.92;24.14;;;;;;;5.89;61.77;99900.50;295467;122;1995565;-72
2021/03/27 03:09:55;;;;;;;36.50;22.18;;;;;;;5.87;61.79;99897.15;327622;122;1961985;-72
2021/03/27 03:11:16;;;;;;;35.33;21.46;;;;;;;5.86;61.76;99908.89;328026;122;1962988;-72
2021/03/27 03:12:32;;;;;;;37.88;22.36;;;;;;;5.85;61.80;99907.23;325531;122;1962096;-71
2021/03/27 03:13:41;;;;;;;36.38;22.53;;;;;;;5.84;61.94;99903.69;327367;122;1962947;-73
2021/03/27 03:14:53;;;;;;;35.52;21.60;;;;;;;5.86;61.87;99909.72;327604;122;1965123;-73
2021/03/27 03:16:00;;;;;;;;;;;;;;;5.84;61.89;99908.22;331949;124;1960941;-71
2021/03/27 03:17:15;;;;;;;31.72;19.57;;;;;;;5.83;62.01;99903.88;328653;122;1960821;-72
2021/03/27 03:18:40;;;;;;;35.61;21.44;;;;;;;5.84;61.94;99909.05;328181;122;1962000;-72
2021/03/27 03:19:55;;;;;;;31.33;20.57;;;;;;;5.85;62.13;99910.74;327840;122;1962053;-73
2021/03/27 03:21:10;;;;;;;36.39;20.45;;;;;;;5.87;62.02;99915.92;327882;122;1961922;-73
2021/03/27 03:22:23;;;;;;;34.55;20.95;;;;;;;5.86;61.93;99907.05;327336;122;1961984;-72
2021/03/27 03:23:38;;;;;;;34.27;21.43;;;;;;;5.88;62.01;99909.56;324293;123;1962065;-72
2021/03/27 03:24:47;;;;;;;32.19;20.67;;;;;;;5.85;62.02;99913.42;327928;122;1962979;-72
2021/03/27 03:26:08;;;;;;;32.88;21.44;;;;;;;5.86;61.95;99919.62;289446;122;2107077;-72
2021/03/27 03:27:26;;;;;;;34.28;20.97;;;;;;;5.87;61.94;99921.28;327688;122;1961938;-72
2021/03/27 03:28:50;;;;;;;34.71;20.53;;;;;;;5.88;61.89;99915.77;296510;122;1961987;-72
2021/03/27 03:30:33;;;;;;;33.94;21.63;;;;;;;5.89;61.89;99920.11;296060;122;2225044;-72
2021/03/27 03:31:46;;;;;;;;;;;;;;;5.89;61.82;99914.74;330868;122;1960998;-72
2021/03/27 03:33:01;;;;;;;31.73;19.76;;;;;;;5.88;61.90;99921.12;328089;122;1961002;-72
2021/03/27 03:34:19;;;;;;;35.93;20.61;;;;;;;5.88;61.83;99915.77;326203;122;1962057;-73
2021/03/27 03:35:48;;;;;;;33.42;21.46;;;;;;;5.88;61.86;99918.44;327782;122;1965069;-72
2021/03/27 03:37:09;;;;;;;33.86;20.86;;;;;;;5.88;61.88;99913.08;295187;124;1961939;-73
2021/03/27 03:38:27;;;;;;;32.12;21.01;;;;;;;5.87;61.82;99918.59;328095;122;1961952;-72
2021/03/27 03:39:36;;;;;;;33.22;20.66;;;;;;;5.86;61.84;99920.45;288201;122;2120258;-73
2021/03/27 03:41:02;;;;;;;31.79;20.32;;;;;;;5.86;61.87;99912.41;311336;122;2301957;-72
2021/03/27 03:42:15;;;;;;;32.59;20.61;;;;;;;5.85;61.92;99924.14;330499;113;1961913;-73
2021/03/27 03:43:30;;;;;;;32.41;20.85;;;;;;;5.84;61.85;99911.73;347597;116;1961929;-73
2021/03/27 03:44:49;;;;;;;32.17;20.12;;;;;;;5.85;61.88;99918.78;307907;114;2751964;-73
2021/03/27 03:46:15;;;;;;;33.19;21.27;;;;;;;5.85;61.99;99924.14;347355;114;1963985;-73
2021/03/27 03:47:33;;;;;;;31.91;20.59;;;;;;;5.68;61.94;99887.63;335535;114;1962738;-73
2021/03/27 03:49:06;;;;;;;31.98;19.59;;;;;;;5.86;61.92;99922.30;344541;116;1961996;-73
2021/03/27 03:50:29;;;;;;;37.96;20.84;;;;;;;5.85;61.92;99913.42;343032;116;1964068;-73
2021/03/27 03:51:56;;;;;;;32.51;20.93;;;;;;;5.84;61.99;99921.62;307518;116;1997083;-73
2021/03/27 03:53:06;;;;;;;33.38;20.69;;;;;;;5.83;62.13;99918.11;343741;116;1969998;-73
2021/03/27 03:54:18;;;;;;;35.79;22.58;;;;;;;5.85;62.02;99921.47;344001;116;1961960;-72
2021/03/27 03:55:49;;;;;;;38.32;24.18;;;;;;;5.84;62.12;99914.41;342594;116;1962040;-73
2021/03/27 03:57:04;;;;;;;36.34;22.34;;;;;;;5.85;62.11;99920.63;343390;116;1962127;-73
2021/03/27 03:58:35;;;;;;;34.12;21.16;;;;;;;5.86;62.19;99927.66;343928;116;1961951;-72
2021/03/27 03:59:54;;;;;;;35.21;22.85;;;;;;;5.86;62.17;99925.81;306378;116;2717946;-72
2021/03/27 04:01:06;;;;;;;33.99;22.09;;;;;;;5.85;62.10;99918.78;342782;116;1963007;-72
2021/03/27 04:02:16;;;;;;;31.68;21.16;;;;;;;5.86;62.04;99920.45;344563;116;1961920;-72
2021/03/27 04:03:25;;;;;;;31.87;21.26;;;;;;;5.87;62.03;99921.28;342664;116;1960903;-72
2021/03/27 04:04:34;;;;;;;35.86;21.37;;;;;;;5.87;62.13;99922.11;322646;116;1960918;-72
2021/03/27 04:05:43;;;;;;;34.31;21.28;;;;;;;5.88;62.10;99922.97;326419;116;2301021;-72
2021/03/27 04:06:53;;;;;;;39.24;23.08;;;;;;;5.86;62.00;99917.77;326392;116;2323948;-72
2021/03/27 04:08:11;;;;;;;31.99;21.04;;;;;;;5.87;62.05;99922.11;342696;116;1964916;-72
2021/03/27 04:09:40;;;;;;;31.57;20.56;;;;;;;5.89;62.01;99925.47;344600;116;1961895;-72
2021/03/27 04:10:48;;;;;;;38.34;22.77;;;;;;;5.90;62.01;99927.16;335094;120;1962934;-73
2021/03/27 04:12:00;;;;;;;36.91;21.28;;;;;;;5.91;61.90;99925.31;330597;120;1964208;-72
2021/03/27 04:13:16;;;;;;;36.28;21.25;;;;;;;5.92;61.82;99922.44;332746;119;1961982;-72
2021/03/27 04:14:30;;;;;;;31.41;20.55;;;;;;;5.93;61.89;99920.62;341483;116;1961914;-72
2021/03/27 04:15:54;;;;;;;37.26;21.19;;;;;;;5.96;61.73;99928.36;343112;116;1962070;-72
2021/03/27 04:17:04;;;;;;;35.23;22.20;;;;;;;5.97;61.83;99932.70;344093;116;1962955;-73
2021/03/27 04:18:30;;;;;;;34.32;21.99;;;;;;;5.97;61.70;99921.14;344224;116;1962018;-72
2021/03/27 04:19:39;;;;;;;33.97;23.04;;;;;;;5.97;61.73;99924.66;296207;116;2231910;-72
2021/03/27 04:21:05;;;;;;;33.41;22.91;;;;;;;5.96;61.85;99924.84;339197;116;1961980;-72
2021/03/27 04:22:16;;;;;;;37.75;22.12;;;;;;;5.96;61.89;99928.36;313470;116;1962967;-73
2021/03/27 04:23:28;;;;;;;40.49;23.76;;;;;;;5.98;61.73;99925.48;343845;116;1961969;-72
2021/03/27 04:24:56;;;;;;;34.64;22.64;;;;;;;5.98;61.71;99930.84;312253;116;2589920;-72
2021/03/27 04:26:24;;;;;;;38.46;22.16;;;;;;;5.99;61.62;99928.02;344350;116;1962051;-72
2021/03/27 04:27:51;;;;;;;34.91;22.55;;;;;;;6.01;61.57;99933.22;342286;116;1961931;-72
2021/03/27 04:29:25;;;;;;;34.02;21.98;;;;;;;6.01;61.56;99926.00;353393;114;1962015;-72
2021/03/27 04:30:44;;;;;;;34.42;22.56;;;;;;;6.02;61.59;99927.66;350864;113;1962011;-73
2021/03/27 04:32:11;;;;;;;33.21;21.92;;;;;;;6.05;61.62;99931.86;349165;114;1964904;-74
2021/03/27 04:33:21;;;;;;;32.09;20.19;;;;;;;6.05;61.57;99932.69;331422;114;2278046;-72
2021/03/27 04:34:42;;;;;;;33.37;20.99;;;;;;;6.07;61.42;99936.04;313437;115;1970036;-73
2021/03/27 04:35:54;;;;;;;35.03;22.42;;;;;;;6.07;61.50;99932.53;341905;116;1961990;-73
2021/03/27 04:37:15;;;;;;;33.14;21.17;;;;;;;6.09;61.44;99931.35;341471;116;1961944;-72
2021/03/27 04:38:39;;;;;;;32.42;19.80;;;;;;;6.12;61.36;99932.86;300343;116;2222968;-72
2021/03/27 04:40:10;;;;;;;34.18;20.83;;;;;;;6.15;61.29;99938.70;330301;115;2267974;-73
2021/03/27 04:41:37;;;;;;;36.12;20.02;;;;;;;6.19;61.14;99938.36;342402;115;1965212;-71
2021/03/27 04:42:49;;;;;;;36.09;21.14;;;;;;;6.21;61.02;99937.18;348392;115;1962047;-72
2021/03/27 04:44:01;;;;;;;32.47;20.79;;;;;;;6.21;61.07;99934.50;345777;115;1964010;-74
2021/03/27 04:45:19;;;;;;;32.66;21.93;;;;;;;6.22;60.95;99936.19;346955;114;1961993;-72
2021/03/27 04:46:32;;;;;;;38.41;22.46;;;;;;;6.24;60.91;99938.69;344643;115;1961943;-72
2021/03/27 04:47:41;;;;;;;31.28;19.55;;;;;;;6.25;61.13;99935.02;302001;115;2130156;-72
2021/03/27 04:48:59;;;;;;;33.00;20.16;;;;;;;6.25;61.01;99943.06;295172;117;2189484;-73
2021/03/27 04:50:33;;;;;;;35.12;20.94;;;;;;;6.25;60.88;99941.21;345926;115;1962090;-72
2021/03/27 04:51:51;;;;;;;35.09;21.43;;;;;;;6.25;60.91;99940.37;345181;115;1961988;-72
2021/03/27 04:53:00;;;;;;;35.76;22.37;;;;;;;6.24;60.91;99944.05;338371;117;1963985;-73
2021/03/27 04:54:13;;;;;;;35.97;22.83;;;;;;;6.25;60.92;99940.37;325125;115;1961999;-73
2021/03/27 04:55:28;;;;;;;29.72;19.60;;;;;;;6.27;60.85;99941.88;346982;115;1963999;-73
2021/03/27 04:56:44;;;;;;;36.74;20.33;;;;;;;6.30;60.80;99940.70;321520;115;2457009;-72
2021/03/27 04:58:30;;;;;;;35.51;21.73;;;;;;;6.31;60.80;99943.20;320278;115;1961953;-73
2021/03/27 05:00:11;;;;;;;33.57;20.62;;;;;;;6.34;60.76;99944.70;320286;125;1963023;-72
2021/03/27 05:01:32;;;;;;;34.62;19.39;;;;;;;6.38;60.75;99951.41;319428;125;1964002;-73
2021/03/27 05:02:47;;;;;;;33.38;20.21;;;;;;;6.41;60.59;99951.06;275981;125;2174633;-72
2021/03/27 05:04:30;;;;;;;32.19;20.77;;;;;;;6.41;60.59;99948.37;311104;125;1961998;-73
2021/03/27 05:06:05;;;;;;;31.84;19.21;;;;;;;6.44;60.50;99960.62;334930;115;1961943;-73
2021/03/27 05:07:15;;;;;;;38.39;20.37;;;;;;;6.44;60.49;99957.94;302430;117;2725939;-73
2021/03/27 05:08:25;;;;;;;35.42;20.40;;;;;;;6.42;60.41;99947.36;301717;117;2744918;-72
2021/03/27 05:09:47;;;;;;;32.77;20.98;;;;;;;6.39;60.57;99958.44;303388;115;2823019;-73
2021/03/27 05:11:12;;;;;;;31.17;20.26;;;;;;;6.37;60.47;99958.59;323536;123;1961845;-73
2021/03/27 05:12:25;;;;;;;31.04;19.11;;;;;;;6.34;60.53;99956.27;344082;115;1960722;-72
2021/03/27 05:13:34;;;;;;;33.19;20.45;;;;;;;6.33;60.53;99957.28;345745;115;1961903;-72
2021/03/27 05:15:00;;;;;;;32.30;20.83;;;;;;;6.32;60.66;99960.12;309410;115;2034265;-73
2021/03/27 05:16:15;;;;;;;32.36;19.97;;;;;;;6.30;60.70;99959.48;345825;115;1961991;-72
2021/03/27 05:17:47;;;;;;;32.34;21.29;;;;;;;6.29;60.77;99953.25;346115;115;1963992;-72
2021/03/27 05:18:57;;;;;;;33.91;19.63;;;;;;;6.29;60.75;99957.79;303279;115;2130419;-72
2021/03/27 05:20:06;;;;;;;33.04;22.08;;;;;;;6.28;60.65;99958.81;318301;115;2503998;-72
2021/03/27 05:21:25;;;;;;;33.70;21.01;;;;;;;6.30;60.73;99957.63;301423;115;2841994;-72
2021/03/27 05:22:54;;;;;;;30.02;20.93;;;;;;;6.28;60.71;99965.00;346713;115;1964003;-72
2021/03/27 05:24:22;;;;;;;32.01;19.84;;;;;;;6.30;60.90;99967.53;334118;119;1962126;-72
2021/03/27 05:25:34;;;;;;;32.50;20.03;;;;;;;6.30;60.73;99957.63;347117;115;1963939;-72
2021/03/27 05:26:47;;;;;;;33.23;20.07;;;;;;;6.29;61.07;99966.67;302435;115;2840925;-72
2021/03/27 05:27:56;;;;;;;33.66;20.14;;;;;;;6.32;60.77;99966.33;346308;115;1961991;-72
2021/03/27 05:29:13;;;;;;;30.39;20.01;;;;;;;6.30;60.86;99965.68;345799;115;1963733;-71
2021/03/27 05:30:33;;;;;;;34.25;20.42;;;;;;;6.29;60.72;99972.03;327335;114;1962010;-72
2021/03/27 05:31:58;;;;;;;33.52;21.13;;;;;;;6.30;60.72;99962.17;337813;115;2897956;-72
2021/03/27 05:33:23;;;;;;;31.25;20.59;;;;;;;6.32;60.64;99977.05;302923;115;2803940;-73
2021/03/27 05:34:35;;;;;;;33.90;20.33;;;;;;;6.34;60.52;99972.36;308382;115;2064421;-72
2021/03/27 05:35:44;;;;;;;32.96;20.46;;;;;;;6.32;60.65;99969.00;346448;115;1962028;-73
2021/03/27 05:37:16;;;;;;;34.50;21.04;;;;;;;6.33;60.65;99967.19;345878;115;1961926;-73
2021/03/27 05:38:34;;;;;;;31.86;19.64;;;;;;;6.34;60.52;99969.68;338569;117;1962046;-73
2021/03/27 05:39:45;;;;;;;34.58;20.90;;;;;;;6.36;60.43;99973.03;346093;115;1962970;-73
2021/03/27 05:41:07;;;;;;;31.77;20.04;;;;;;;6.38;60.41;99970.20;301271;115;2805899;-73
2021/03/27 05:42:31;;;;;;;31.67;20.62;;;;;;;6.39;60.29;99967.32;334991;119;1962009;-73
2021/03/27 05:43:46;;;;;;;31.99;20.15;;;;;;;6.42;60.43;99968.83;325544;114;1970026;-73
2021/03/27 05:45:10;;;;;;;35.46;21.31;;;;;;;6.42;60.34;99971.51;341708;115;1962934;-72
2021/03/27 05:46:54;;;;;;;34.37;20.94;;;;;;;6.45;60.25;99973.02;342970;116;1962008;-73
2021/03/27 05:48:26;;;;;;;31.58;20.03;;;;;;;6.46;60.20;99970.17;322048;115;2401979;-73
2021/03/27 05:49:40;;;;;;;30.48;19.16;;;;;;;6.50;60.03;99968.80;306998;115;2904956;-72
2021/03/27 05:50:55;;;;;;;30.44;20.16;;;;;;;6.52;59.95;99966.79;346256;115;1964028;-73
2021/03/27 05:52:22;;;;;;;30.68;19.66;;;;;;;6.54;59.93;99974.68;344670;115;1963985;-72
2021/03/27 05:53:48;;;;;;;33.20;19.04;;;;;;;6.57;59.85;99977.84;329388;115;2259948;-72
2021/03/27 05:55:03;;;;;;;31.62;20.12;;;;;;;6.62;59.81;99973.83;349860;112;1962233;-73